sensor_id;sensor_type;location;lat;lon;timestamp;temperature;humidity
40123;DHT22;25832;45.490;4.912;2023-03-14T00:00:58;10.40;99.90
40123;DHT22;25832;45.490;4.912;2023-03-14T00:03:24;10.50;99.90
40123;DHT22;25832;45.490;4.912;2023-03-14T00:05:49;10.50;99.90
40123;DHT22;25832;45.490;4.912;2023-03-14T00:08:15;10.40;99.90
40123;DHT22;25832;45.490;4.912;2023-03-14T00:10:41;10.50;99.90
40123;DHT22;25832;45.490;4.912;2023-03-14T00:13:07;10.50;99.90
40123;DHT22;25832;45.490;4.912;2023-03-14T00:15:33;10.40;99.90
40123;DHT22;25832;45.490;4.912;2023-03-14T00:18:00;10.40;99.90
40123;DHT22;25832;45.490;4.912;2023-03-14T00:20:25;10.40;99.90
40123;DHT22;25832;45.490;4.912;2023-03-14T00:22:51;10.40;99.90
40123;DHT22;25832;45.490;4.912;2023-03-14T00:25:17;10.40;99.90
40123;DHT22;25832;45.490;4.912;2023-03-14T00:27:43;10.40;99.90
40123;DHT22;25832;45.490;4.912;2023-03-14T00:30:09;10.40;99.90
40123;DHT22;25832;45.490;4.912;2023-03-14T00:32:35;10.30;99.90
40123;DHT22;25832;45.490;4.912;2023-03-14T00:35:01;10.40;99.90
40123;DHT22;25832;45.490;4.912;2023-03-14T00:37:28;10.40;99.90
40123;DHT22;25832;45.490;4.912;2023-03-14T00:39:54;10.50;99.90
40123;DHT22;25832;45.490;4.912;2023-03-14T00:42:20;10.50;99.90
40123;DHT22;25832;45.490;4.912;2023-03-14T00:44:46;10.50;99.90
40123;DHT22;25832;45.490;4.912;2023-03-14T00:47:11;10.50;99.90
40123;DHT22;25832;45.490;4.912;2023-03-14T00:49:37;10.50;99.90
40123;DHT22;25832;45.490;4.912;2023-03-14T00:52:03;10.50;99.90
40123;DHT22;25832;45.490;4.912;2023-03-14T00:54:28;10.50;99.90
40123;DHT22;25832;45.490;4.912;2023-03-14T00:56:54;10.50;99.90
40123;DHT22;25832;45.490;4.912;2023-03-14T00:59:20;10.50;99.90
40123;DHT22;25832;45.490;4.912;2023-03-14T01:01:46;10.50;99.90
40123;DHT22;25832;45.490;4.912;2023-03-14T01:04:11;10.50;99.90
40123;DHT22;25832;45.490;4.912;2023-03-14T01:06:37;10.50;99.90
40123;DHT22;25832;45.490;4.912;2023-03-14T01:09:04;10.50;99.90
40123;DHT22;25832;45.490;4.912;2023-03-14T01:11:32;10.40;99.90
40123;DHT22;25832;45.490;4.912;2023-03-14T01:13:59;10.40;99.90
40123;DHT22;25832;45.490;4.912;2023-03-14T01:16:26;10.40;99.90
40123;DHT22;25832;45.490;4.912;2023-03-14T01:18:52;10.30;99.90
40123;DHT22;25832;45.490;4.912;2023-03-14T01:21:24;10.30;99.90
40123;DHT22;25832;45.490;4.912;2023-03-14T01:23:52;10.40;99.90
40123;DHT22;25832;45.490;4.912;2023-03-14T01:26:20;10.40;99.90
40123;DHT22;25832;45.490;4.912;2023-03-14T01:28:48;10.40;99.90
40123;DHT22;25832;45.490;4.912;2023-03-14T01:31:14;10.30;99.90
40123;DHT22;25832;45.490;4.912;2023-03-14T01:33:41;10.30;99.90
40123;DHT22;25832;45.490;4.912;2023-03-14T01:36:07;10.30;99.90
40123;DHT22;25832;45.490;4.912;2023-03-14T01:38:34;10.40;99.90
40123;DHT22;25832;45.490;4.912;2023-03-14T01:41:01;10.40;99.90
40123;DHT22;25832;45.490;4.912;2023-03-14T01:43:28;10.40;99.90
40123;DHT22;25832;45.490;4.912;2023-03-14T01:48:35;10.40;99.90
40123;DHT22;25832;45.490;4.912;2023-03-14T01:51:04;10.40;99.90
40123;DHT22;25832;45.490;4.912;2023-03-14T01:53:32;10.40;99.90
40123;DHT22;25832;45.490;4.912;2023-03-14T01:55:59;10.40;99.90
40123;DHT22;25832;45.490;4.912;2023-03-14T01:58:26;10.40;99.90
40123;DHT22;25832;45.490;4.912;2023-03-14T02:00:55;10.40;99.90
40123;DHT22;25832;45.490;4.912;2023-03-14T02:03:23;10.40;99.90
40123;DHT22;25832;45.490;4.912;2023-03-14T02:05:50;10.40;99.90
40123;DHT22;25832;45.490;4.912;2023-03-14T02:08:20;10.40;99.90
40123;DHT22;25832;45.490;4.912;2023-03-14T02:10:49;10.30;99.90
40123;DHT22;25832;45.490;4.912;2023-03-14T02:13:17;10.30;99.90
40123;DHT22;25832;45.490;4.912;2023-03-14T02:15:43;10.30;99.90
40123;DHT22;25832;45.490;4.912;2023-03-14T02:18:10;10.30;99.90
40123;DHT22;25832;45.490;4.912;2023-03-14T02:23:07;10.20;99.90
40123;DHT22;25832;45.490;4.912;2023-03-14T02:25:51;10.30;99.90
40123;DHT22;25832;45.490;4.912;2023-03-14T02:28:19;10.30;99.90
40123;DHT22;25832;45.490;4.912;2023-03-14T02:30:46;10.30;99.90
40123;DHT22;25832;45.490;4.912;2023-03-14T02:33:14;10.30;99.90
40123;DHT22;25832;45.490;4.912;2023-03-14T02:35:48;10.30;99.90
40123;DHT22;25832;45.490;4.912;2023-03-14T02:38:24;10.20;99.90
40123;DHT22;25832;45.490;4.912;2023-03-14T02:40:53;10.20;99.90
40123;DHT22;25832;45.490;4.912;2023-03-14T02:43:18;10.20;99.90
40123;DHT22;25832;45.490;4.912;2023-03-14T02:45:46;10.20;99.90
40123;DHT22;25832;45.490;4.912;2023-03-14T02:48:25;10.20;99.90
40123;DHT22;25832;45.490;4.912;2023-03-14T02:50:56;10.20;99.90
40123;DHT22;25832;45.490;4.912;2023-03-14T02:53:31;10.10;99.90
40123;DHT22;25832;45.490;4.912;2023-03-14T02:55:57;10.10;99.90
40123;DHT22;25832;45.490;4.912;2023-03-14T02:58:23;10.10;99.90
40123;DHT22;25832;45.490;4.912;2023-03-14T03:00:49;10.00;99.90
40123;DHT22;25832;45.490;4.912;2023-03-14T03:03:15;10.00;99.90
40123;DHT22;25832;45.490;4.912;2023-03-14T03:05:41;9.90;99.90
40123;DHT22;25832;45.490;4.912;2023-03-14T03:08:08;9.90;99.90
40123;DHT22;25832;45.490;4.912;2023-03-14T03:10:34;9.90;99.90
40123;DHT22;25832;45.490;4.912;2023-03-14T03:13:00;9.90;99.90
40123;DHT22;25832;45.490;4.912;2023-03-14T03:15:26;9.90;99.90
40123;DHT22;25832;45.490;4.912;2023-03-14T03:17:51;9.90;99.90
40123;DHT22;25832;45.490;4.912;2023-03-14T03:20:17;9.90;99.90
40123;DHT22;25832;45.490;4.912;2023-03-14T03:22:43;9.90;99.90
40123;DHT22;25832;45.490;4.912;2023-03-14T03:25:09;9.90;99.90
40123;DHT22;25832;45.490;4.912;2023-03-14T03:27:36;10.00;99.90
40123;DHT22;25832;45.490;4.912;2023-03-14T03:30:03;10.00;99.90
40123;DHT22;25832;45.490;4.912;2023-03-14T03:32:29;10.00;99.90
40123;DHT22;25832;45.490;4.912;2023-03-14T03:34:55;10.00;99.90
40123;DHT22;25832;45.490;4.912;2023-03-14T03:37:20;10.00;99.90
40123;DHT22;25832;45.490;4.912;2023-03-14T03:39:46;10.00;99.90
40123;DHT22;25832;45.490;4.912;2023-03-14T03:42:12;10.00;99.90
40123;DHT22;25832;45.490;4.912;2023-03-14T03:44:37;10.10;99.90
40123;DHT22;25832;45.490;4.912;2023-03-14T03:47:03;10.10;99.90
40123;DHT22;25832;45.490;4.912;2023-03-14T03:49:30;10.10;99.90
40123;DHT22;25832;45.490;4.912;2023-03-14T03:51:56;10.00;99.90
40123;DHT22;25832;45.490;4.912;2023-03-14T03:54:21;10.00;99.90
40123;DHT22;25832;45.490;4.912;2023-03-14T03:56:47;10.10;99.90
40123;DHT22;25832;45.490;4.912;2023-03-14T03:59:13;10.10;99.90
40123;DHT22;25832;45.490;4.912;2023-03-14T04:01:38;10.10;99.90
40123;DHT22;25832;45.490;4.912;2023-03-14T04:04:04;10.00;99.90
40123;DHT22;25832;45.490;4.912;2023-03-14T04:06:30;10.00;99.90
40123;DHT22;25832;45.490;4.912;2023-03-14T04:08:56;10.00;99.90
40123;DHT22;25832;45.490;4.912;2023-03-14T04:11:22;10.00;99.90
40123;DHT22;25832;45.490;4.912;2023-03-14T04:13:47;10.00;99.90
40123;DHT22;25832;45.490;4.912;2023-03-14T04:16:19;10.00;99.90
40123;DHT22;25832;45.490;4.912;2023-03-14T04:18:45;10.00;99.90
40123;DHT22;25832;45.490;4.912;2023-03-14T04:21:11;10.00;99.90
40123;DHT22;25832;45.490;4.912;2023-03-14T04:23:36;10.00;99.90
40123;DHT22;25832;45.490;4.912;2023-03-14T04:26:02;10.00;99.90
40123;DHT22;25832;45.490;4.912;2023-03-14T04:28:28;10.00;99.90
40123;DHT22;25832;45.490;4.912;2023-03-14T04:30:54;10.00;99.90
40123;DHT22;25832;45.490;4.912;2023-03-14T04:33:19;10.00;99.90
40123;DHT22;25832;45.490;4.912;2023-03-14T04:35:46;10.00;99.90
40123;DHT22;25832;45.490;4.912;2023-03-14T04:38:12;10.00;99.90
40123;DHT22;25832;45.490;4.912;2023-03-14T04:40:39;10.00;99.90
40123;DHT22;25832;45.490;4.912;2023-03-14T04:43:06;9.90;99.90
40123;DHT22;25832;45.490;4.912;2023-03-14T04:45:32;10.00;99.90
40123;DHT22;25832;45.490;4.912;2023-03-14T04:47:58;9.90;99.90
40123;DHT22;25832;45.490;4.912;2023-03-14T04:50:23;9.90;99.90
40123;DHT22;25832;45.490;4.912;2023-03-14T04:52:49;9.90;99.90
40123;DHT22;25832;45.490;4.912;2023-03-14T04:55:15;9.80;99.90
40123;DHT22;25832;45.490;4.912;2023-03-14T04:57:40;9.80;99.90
40123;DHT22;25832;45.490;4.912;2023-03-14T05:00:07;9.70;99.90
40123;DHT22;25832;45.490;4.912;2023-03-14T05:02:33;9.70;99.90
40123;DHT22;25832;45.490;4.912;2023-03-14T05:04:59;9.80;99.90
40123;DHT22;25832;45.490;4.912;2023-03-14T05:07:24;9.70;99.90
40123;DHT22;25832;45.490;4.912;2023-03-14T05:09:50;9.70;99.90
40123;DHT22;25832;45.490;4.912;2023-03-14T05:12:16;9.70;99.90
40123;DHT22;25832;45.490;4.912;2023-03-14T05:14:42;9.70;99.90
40123;DHT22;25832;45.490;4.912;2023-03-14T05:17:08;9.70;99.90
40123;DHT22;25832;45.490;4.912;2023-03-14T05:19:33;9.70;99.90
40123;DHT22;25832;45.490;4.912;2023-03-14T05:21:59;9.60;99.90
40123;DHT22;25832;45.490;4.912;2023-03-14T05:24:24;9.60;99.90
40123;DHT22;25832;45.490;4.912;2023-03-14T05:26:50;9.60;99.90
40123;DHT22;25832;45.490;4.912;2023-03-14T05:29:16;9.60;99.90
40123;DHT22;25832;45.490;4.912;2023-03-14T05:31:41;9.60;99.90
40123;DHT22;25832;45.490;4.912;2023-03-14T05:34:07;9.60;99.90
40123;DHT22;25832;45.490;4.912;2023-03-14T05:36:32;9.60;99.90
40123;DHT22;25832;45.490;4.912;2023-03-14T05:38:58;9.60;99.90
40123;DHT22;25832;45.490;4.912;2023-03-14T05:41:24;9.60;99.90
40123;DHT22;25832;45.490;4.912;2023-03-14T05:43:49;9.60;99.90
40123;DHT22;25832;45.490;4.912;2023-03-14T05:46:15;9.50;99.90
40123;DHT22;25832;45.490;4.912;2023-03-14T05:48:41;9.50;99.90
40123;DHT22;25832;45.490;4.912;2023-03-14T05:51:06;9.50;99.90
40123;DHT22;25832;45.490;4.912;2023-03-14T05:53:32;9.60;99.90
40123;DHT22;25832;45.490;4.912;2023-03-14T05:55:58;9.50;99.90
40123;DHT22;25832;45.490;4.912;2023-03-14T05:58:24;9.50;99.90
40123;DHT22;25832;45.490;4.912;2023-03-14T06:00:50;9.50;99.90
40123;DHT22;25832;45.490;4.912;2023-03-14T06:03:16;9.50;99.90
40123;DHT22;25832;45.490;4.912;2023-03-14T06:05:41;9.50;99.90
40123;DHT22;25832;45.490;4.912;2023-03-14T06:08:07;9.50;99.90
40123;DHT22;25832;45.490;4.912;2023-03-14T06:10:35;9.50;99.90
40123;DHT22;25832;45.490;4.912;2023-03-14T06:13:01;9.60;99.90
40123;DHT22;25832;45.490;4.912;2023-03-14T06:15:27;9.60;99.90
40123;DHT22;25832;45.490;4.912;2023-03-14T06:17:54;9.70;99.90
40123;DHT22;25832;45.490;4.912;2023-03-14T06:20:20;9.60;99.90
40123;DHT22;25832;45.490;4.912;2023-03-14T06:22:46;9.60;99.90
40123;DHT22;25832;45.490;4.912;2023-03-14T06:25:12;9.60;99.90
40123;DHT22;25832;45.490;4.912;2023-03-14T06:27:37;9.60;99.90
40123;DHT22;25832;45.490;4.912;2023-03-14T06:30:04;9.60;99.90
40123;DHT22;25832;45.490;4.912;2023-03-14T06:32:30;9.70;99.90
40123;DHT22;25832;45.490;4.912;2023-03-14T06:34:55;9.70;99.90
40123;DHT22;25832;45.490;4.912;2023-03-14T06:37:22;9.70;99.90
40123;DHT22;25832;45.490;4.912;2023-03-14T06:39:48;9.70;99.90
40123;DHT22;25832;45.490;4.912;2023-03-14T06:42:14;9.70;99.90
40123;DHT22;25832;45.490;4.912;2023-03-14T06:44:39;9.70;99.90
40123;DHT22;25832;45.490;4.912;2023-03-14T06:47:05;9.70;99.90
40123;DHT22;25832;45.490;4.912;2023-03-14T06:49:31;9.70;99.90
40123;DHT22;25832;45.490;4.912;2023-03-14T06:51:56;9.60;99.90
40123;DHT22;25832;45.490;4.912;2023-03-14T06:54:22;9.60;99.90
40123;DHT22;25832;45.490;4.912;2023-03-14T06:56:48;9.60;99.90
40123;DHT22;25832;45.490;4.912;2023-03-14T06:59:13;9.60;99.90
40123;DHT22;25832;45.490;4.912;2023-03-14T07:01:39;9.50;99.90
40123;DHT22;25832;45.490;4.912;2023-03-14T07:04:05;9.50;99.90
40123;DHT22;25832;45.490;4.912;2023-03-14T07:06:31;9.50;99.90
40123;DHT22;25832;45.490;4.912;2023-03-14T07:08:58;9.50;99.90
40123;DHT22;25832;45.490;4.912;2023-03-14T07:11:23;9.40;99.90
40123;DHT22;25832;45.490;4.912;2023-03-14T07:13:49;9.40;99.90
40123;DHT22;25832;45.490;4.912;2023-03-14T07:16:15;9.40;99.90
40123;DHT22;25832;45.490;4.912;2023-03-14T07:18:40;9.40;99.90
40123;DHT22;25832;45.490;4.912;2023-03-14T07:21:07;9.30;99.90
40123;DHT22;25832;45.490;4.912;2023-03-14T07:23:34;9.30;99.90
40123;DHT22;25832;45.490;4.912;2023-03-14T07:26:01;9.30;99.90
40123;DHT22;25832;45.490;4.912;2023-03-14T07:28:27;9.30;99.90
40123;DHT22;25832;45.490;4.912;2023-03-14T07:30:53;9.30;99.90
40123;DHT22;25832;45.490;4.912;2023-03-14T07:33:19;9.40;99.90
40123;DHT22;25832;45.490;4.912;2023-03-14T07:35:48;9.40;99.90
40123;DHT22;25832;45.490;4.912;2023-03-14T07:38:14;9.40;99.90
40123;DHT22;25832;45.490;4.912;2023-03-14T07:40:39;9.50;99.90
40123;DHT22;25832;45.490;4.912;2023-03-14T07:43:05;9.50;99.90
40123;DHT22;25832;45.490;4.912;2023-03-14T07:45:31;9.50;99.90
40123;DHT22;25832;45.490;4.912;2023-03-14T07:47:57;9.60;99.90
40123;DHT22;25832;45.490;4.912;2023-03-14T07:50:26;9.70;99.90
40123;DHT22;25832;45.490;4.912;2023-03-14T07:52:53;9.70;99.90
40123;DHT22;25832;45.490;4.912;2023-03-14T07:55:19;9.70;99.90
40123;DHT22;25832;45.490;4.912;2023-03-14T07:57:44;9.80;99.90
40123;DHT22;25832;45.490;4.912;2023-03-14T08:00:11;9.80;99.90
40123;DHT22;25832;45.490;4.912;2023-03-14T08:02:36;9.80;99.90
40123;DHT22;25832;45.490;4.912;2023-03-14T08:05:03;9.80;99.90
40123;DHT22;25832;45.490;4.912;2023-03-14T08:07:29;9.80;99.90
40123;DHT22;25832;45.490;4.912;2023-03-14T08:09:54;9.90;99.90
40123;DHT22;25832;45.490;4.912;2023-03-14T08:12:20;9.90;99.90
40123;DHT22;25832;45.490;4.912;2023-03-14T08:14:46;10.00;99.90
40123;DHT22;25832;45.490;4.912;2023-03-14T08:17:11;10.00;99.90
40123;DHT22;25832;45.490;4.912;2023-03-14T08:19:37;10.00;99.90
40123;DHT22;25832;45.490;4.912;2023-03-14T08:22:03;10.10;99.90
40123;DHT22;25832;45.490;4.912;2023-03-14T08:24:29;10.10;99.90
40123;DHT22;25832;45.490;4.912;2023-03-14T08:26:55;10.10;99.90
40123;DHT22;25832;45.490;4.912;2023-03-14T08:29:21;10.00;99.90
40123;DHT22;25832;45.490;4.912;2023-03-14T08:31:46;10.00;99.90
40123;DHT22;25832;45.490;4.912;2023-03-14T08:34:14;10.00;99.90
40123;DHT22;25832;45.490;4.912;2023-03-14T08:36:40;9.90;99.90
40123;DHT22;25832;45.490;4.912;2023-03-14T08:39:06;9.90;99.90
40123;DHT22;25832;45.490;4.912;2023-03-14T08:41:33;9.90;99.90
40123;DHT22;25832;45.490;4.912;2023-03-14T08:43:58;9.90;99.90
40123;DHT22;25832;45.490;4.912;2023-03-14T08:46:24;9.80;99.90
40123;DHT22;25832;45.490;4.912;2023-03-14T08:48:50;9.80;99.90
40123;DHT22;25832;45.490;4.912;2023-03-14T08:51:15;9.80;99.90
40123;DHT22;25832;45.490;4.912;2023-03-14T08:53:42;9.80;99.90
40123;DHT22;25832;45.490;4.912;2023-03-14T08:56:09;9.80;99.90
40123;DHT22;25832;45.490;4.912;2023-03-14T08:58:36;9.80;99.90
40123;DHT22;25832;45.490;4.912;2023-03-14T09:01:04;9.80;99.90
40123;DHT22;25832;45.490;4.912;2023-03-14T09:03:30;9.90;99.90
40123;DHT22;25832;45.490;4.912;2023-03-14T09:05:56;9.80;99.90
40123;DHT22;25832;45.490;4.912;2023-03-14T09:08:26;9.90;99.90
40123;DHT22;25832;45.490;4.912;2023-03-14T09:10:52;9.90;99.90
40123;DHT22;25832;45.490;4.912;2023-03-14T09:13:17;10.00;99.90
40123;DHT22;25832;45.490;4.912;2023-03-14T09:15:43;10.00;99.90
40123;DHT22;25832;45.490;4.912;2023-03-14T09:18:09;9.90;99.90
40123;DHT22;25832;45.490;4.912;2023-03-14T09:20:34;9.90;99.90
40123;DHT22;25832;45.490;4.912;2023-03-14T09:23:00;9.80;99.90
40123;DHT22;25832;45.490;4.912;2023-03-14T09:25:25;9.80;99.90
40123;DHT22;25832;45.490;4.912;2023-03-14T09:27:51;9.80;99.90
40123;DHT22;25832;45.490;4.912;2023-03-14T09:30:17;9.80;99.90
40123;DHT22;25832;45.490;4.912;2023-03-14T09:32:42;9.90;99.90
40123;DHT22;25832;45.490;4.912;2023-03-14T09:35:08;10.00;99.90
40123;DHT22;25832;45.490;4.912;2023-03-14T09:37:35;10.00;99.90
40123;DHT22;25832;45.490;4.912;2023-03-14T09:40:00;10.10;99.90
40123;DHT22;25832;45.490;4.912;2023-03-14T09:42:33;10.20;99.90
40123;DHT22;25832;45.490;4.912;2023-03-14T09:45:03;10.30;99.90
40123;DHT22;25832;45.490;4.912;2023-03-14T09:47:34;10.30;99.90
40123;DHT22;25832;45.490;4.912;2023-03-14T09:50:01;10.30;99.90
40123;DHT22;25832;45.490;4.912;2023-03-14T09:52:35;10.30;99.90
40123;DHT22;25832;45.490;4.912;2023-03-14T09:55:04;10.30;99.90
40123;DHT22;25832;45.490;4.912;2023-03-14T09:57:33;10.40;99.90
40123;DHT22;25832;45.490;4.912;2023-03-14T10:00:14;10.40;99.90
40123;DHT22;25832;45.490;4.912;2023-03-14T10:02:42;10.30;99.90
40123;DHT22;25832;45.490;4.912;2023-03-14T10:05:17;10.30;99.90
40123;DHT22;25832;45.490;4.912;2023-03-14T10:07:43;10.30;99.90
40123;DHT22;25832;45.490;4.912;2023-03-14T10:10:21;10.40;99.90
40123;DHT22;25832;45.490;4.912;2023-03-14T10:12:54;10.40;99.30
40123;DHT22;25832;45.490;4.912;2023-03-14T10:15:26;10.40;98.70
40123;DHT22;25832;45.490;4.912;2023-03-14T10:17:51;10.40;99.70
40123;DHT22;25832;45.490;4.912;2023-03-14T10:20:38;10.40;99.60
40123;DHT22;25832;45.490;4.912;2023-03-14T10:23:07;10.40;98.30
40123;DHT22;25832;45.490;4.912;2023-03-14T10:26:03;10.30;98.70
40123;DHT22;25832;45.490;4.912;2023-03-14T10:28:47;10.30;97.50
40123;DHT22;25832;45.490;4.912;2023-03-14T10:31:14;10.40;97.90
40123;DHT22;25832;45.490;4.912;2023-03-14T10:33:40;10.40;97.60
40123;DHT22;25832;45.490;4.912;2023-03-14T10:38:42;10.40;97.60
40123;DHT22;25832;45.490;4.912;2023-03-14T10:41:23;10.40;97.80
40123;DHT22;25832;45.490;4.912;2023-03-14T10:43:51;10.40;98.00
40123;DHT22;25832;45.490;4.912;2023-03-14T10:46:20;10.50;97.60
40123;DHT22;25832;45.490;4.912;2023-03-14T10:48:46;10.50;98.30
40123;DHT22;25832;45.490;4.912;2023-03-14T10:51:19;10.60;98.00
40123;DHT22;25832;45.490;4.912;2023-03-14T10:53:58;10.70;97.20
40123;DHT22;25832;45.490;4.912;2023-03-14T10:56:25;10.70;97.30
40123;DHT22;25832;45.490;4.912;2023-03-14T10:58:54;10.80;97.70
40123;DHT22;25832;45.490;4.912;2023-03-14T11:04:35;11.00;98.20
40123;DHT22;25832;45.490;4.912;2023-03-14T11:07:09;11.10;98.70
40123;DHT22;25832;45.490;4.912;2023-03-14T11:09:56;11.20;97.70
40123;DHT22;25832;45.490;4.912;2023-03-14T11:15:50;11.30;97.20
40123;DHT22;25832;45.490;4.912;2023-03-14T11:20:47;11.40;98.60
40123;DHT22;25832;45.490;4.912;2023-03-14T11:23:21;11.50;97.50
40123;DHT22;25832;45.490;4.912;2023-03-14T11:28:37;11.50;98.10
40123;DHT22;25832;45.490;4.912;2023-03-14T11:31:31;11.60;98.00
40123;DHT22;25832;45.490;4.912;2023-03-14T11:39:37;12.50;99.90
40123;DHT22;25832;45.490;4.912;2023-03-14T11:42:04;12.30;99.70
40123;DHT22;25832;45.490;4.912;2023-03-14T11:44:37;12.00;99.90
40123;DHT22;25832;45.490;4.912;2023-03-14T11:49:56;12.20;99.90
40123;DHT22;25832;45.490;4.912;2023-03-14T11:54:55;12.20;99.90
40123;DHT22;25832;45.490;4.912;2023-03-14T11:57:22;12.10;99.90
40123;DHT22;25832;45.490;4.912;2023-03-14T12:02:57;12.00;99.90
40123;DHT22;25832;45.490;4.912;2023-03-14T12:10:53;11.80;98.00
40123;DHT22;25832;45.490;4.912;2023-03-14T12:13:20;11.70;97.00
40123;DHT22;25832;45.490;4.912;2023-03-14T12:15:59;11.80;97.90
40123;DHT22;25832;45.490;4.912;2023-03-14T12:21:17;12.20;96.80
40123;DHT22;25832;45.490;4.912;2023-03-14T12:28:37;12.40;96.50
40123;DHT22;25832;45.490;4.912;2023-03-14T12:34:03;12.70;97.00
40123;DHT22;25832;45.490;4.912;2023-03-14T12:47:13;13.40;94.70
40123;DHT22;25832;45.490;4.912;2023-03-14T12:49:39;13.50;92.10
40123;DHT22;25832;45.490;4.912;2023-03-14T12:52:16;13.50;90.20
40123;DHT22;25832;45.490;4.912;2023-03-14T12:59:51;13.10;91.90
40123;DHT22;25832;45.490;4.912;2023-03-14T13:10:28;12.60;91.20
40123;DHT22;25832;45.490;4.912;2023-03-14T13:13:19;12.70;92.00
40123;DHT22;25832;45.490;4.912;2023-03-14T13:15:46;12.90;91.50
40123;DHT22;25832;45.490;4.912;2023-03-14T13:18:16;12.90;92.30
40123;DHT22;25832;45.490;4.912;2023-03-14T13:20:55;13.00;92.80
40123;DHT22;25832;45.490;4.912;2023-03-14T13:23:23;13.10;92.40
40123;DHT22;25832;45.490;4.912;2023-03-14T13:25:49;13.10;87.70
40123;DHT22;25832;45.490;4.912;2023-03-14T13:28:16;13.00;87.70
40123;DHT22;25832;45.490;4.912;2023-03-14T13:30:44;13.10;88.20
40123;DHT22;25832;45.490;4.912;2023-03-14T13:33:18;13.10;83.80
40123;DHT22;25832;45.490;4.912;2023-03-14T13:35:59;13.10;82.20
40123;DHT22;25832;45.490;4.912;2023-03-14T13:38:27;13.20;81.20
40123;DHT22;25832;45.490;4.912;2023-03-14T13:40:59;13.30;81.80
40123;DHT22;25832;45.490;4.912;2023-03-14T13:48:25;13.00;79.80
40123;DHT22;25832;45.490;4.912;2023-03-14T13:50:54;13.00;81.20
40123;DHT22;25832;45.490;4.912;2023-03-14T13:53:21;13.20;78.10
40123;DHT22;25832;45.490;4.912;2023-03-14T13:55:47;13.20;77.30
40123;DHT22;25832;45.490;4.912;2023-03-14T13:58:42;13.20;77.60
40123;DHT22;25832;45.490;4.912;2023-03-14T14:01:17;13.10;77.90
40123;DHT22;25832;45.490;4.912;2023-03-14T14:03:46;12.90;77.70
40123;DHT22;25832;45.490;4.912;2023-03-14T14:08:54;12.60;80.30
40123;DHT22;25832;45.490;4.912;2023-03-14T14:11:34;12.50;78.80
40123;DHT22;25832;45.490;4.912;2023-03-14T14:14:04;12.30;79.00
40123;DHT22;25832;45.490;4.912;2023-03-14T14:16:31;12.20;79.90
40123;DHT22;25832;45.490;4.912;2023-03-14T14:18:58;12.00;82.30
40123;DHT22;25832;45.490;4.912;2023-03-14T14:21:25;12.00;80.70
40123;DHT22;25832;45.490;4.912;2023-03-14T14:23:51;11.90;81.00
40123;DHT22;25832;45.490;4.912;2023-03-14T14:26:19;11.90;81.50
40123;DHT22;25832;45.490;4.912;2023-03-14T14:28:45;11.90;82.40
40123;DHT22;25832;45.490;4.912;2023-03-14T14:34:00;12.20;80.50
40123;DHT22;25832;45.490;4.912;2023-03-14T14:36:44;12.30;80.10
40123;DHT22;25832;45.490;4.912;2023-03-14T14:39:21;12.40;81.50
40123;DHT22;25832;45.490;4.912;2023-03-14T14:41:50;12.50;79.10
40123;DHT22;25832;45.490;4.912;2023-03-14T14:44:21;12.40;81.60
40123;DHT22;25832;45.490;4.912;2023-03-14T14:46:54;12.50;81.30
40123;DHT22;25832;45.490;4.912;2023-03-14T14:49:20;12.60;80.30
40123;DHT22;25832;45.490;4.912;2023-03-14T14:51:50;12.70;78.20
40123;DHT22;25832;45.490;4.912;2023-03-14T14:54:18;12.80;80.20
40123;DHT22;25832;45.490;4.912;2023-03-14T14:56:50;12.90;78.50
40123;DHT22;25832;45.490;4.912;2023-03-14T14:59:27;13.00;78.60
40123;DHT22;25832;45.490;4.912;2023-03-14T15:01:59;13.10;78.10
40123;DHT22;25832;45.490;4.912;2023-03-14T15:04:25;13.30;77.70
40123;DHT22;25832;45.490;4.912;2023-03-14T15:06:52;13.40;76.60
40123;DHT22;25832;45.490;4.912;2023-03-14T15:09:19;13.40;76.20
40123;DHT22;25832;45.490;4.912;2023-03-14T15:11:46;13.40;76.20
40123;DHT22;25832;45.490;4.912;2023-03-14T15:14:11;13.40;76.90
40123;DHT22;25832;45.490;4.912;2023-03-14T15:16:38;13.30;78.70
40123;DHT22;25832;45.490;4.912;2023-03-14T15:19:19;13.20;76.80
40123;DHT22;25832;45.490;4.912;2023-03-14T15:21:45;13.00;75.00
40123;DHT22;25832;45.490;4.912;2023-03-14T15:24:11;12.70;76.70
40123;DHT22;25832;45.490;4.912;2023-03-14T15:26:37;12.60;78.30
40123;DHT22;25832;45.490;4.912;2023-03-14T15:29:02;12.70;75.80
40123;DHT22;25832;45.490;4.912;2023-03-14T15:31:28;12.80;76.70
40123;DHT22;25832;45.490;4.912;2023-03-14T15:33:54;12.90;75.40
40123;DHT22;25832;45.490;4.912;2023-03-14T15:36:25;13.00;75.20
40123;DHT22;25832;45.490;4.912;2023-03-14T15:38:52;13.00;75.00
40123;DHT22;25832;45.490;4.912;2023-03-14T15:41:18;13.00;73.80
40123;DHT22;25832;45.490;4.912;2023-03-14T15:43:44;13.00;75.40
40123;DHT22;25832;45.490;4.912;2023-03-14T15:46:11;12.90;74.10
40123;DHT22;25832;45.490;4.912;2023-03-14T15:48:37;12.80;75.40
40123;DHT22;25832;45.490;4.912;2023-03-14T15:51:03;12.70;75.20
40123;DHT22;25832;45.490;4.912;2023-03-14T15:53:28;12.60;75.40
40123;DHT22;25832;45.490;4.912;2023-03-14T15:55:54;12.40;74.80
40123;DHT22;25832;45.490;4.912;2023-03-14T15:58:20;12.30;78.20
40123;DHT22;25832;45.490;4.912;2023-03-14T16:00:46;12.30;76.70
40123;DHT22;25832;45.490;4.912;2023-03-14T16:03:12;12.30;75.20
40123;DHT22;25832;45.490;4.912;2023-03-14T16:05:39;12.20;75.40
40123;DHT22;25832;45.490;4.912;2023-03-14T16:08:05;12.10;76.40
40123;DHT22;25832;45.490;4.912;2023-03-14T16:10:32;12.00;75.70
40123;DHT22;25832;45.490;4.912;2023-03-14T16:12:58;11.90;75.40
40123;DHT22;25832;45.490;4.912;2023-03-14T16:15:24;11.90;76.70
40123;DHT22;25832;45.490;4.912;2023-03-14T16:17:53;12.00;76.00
40123;DHT22;25832;45.490;4.912;2023-03-14T16:20:19;12.00;75.30
40123;DHT22;25832;45.490;4.912;2023-03-14T16:22:45;12.10;74.30
40123;DHT22;25832;45.490;4.912;2023-03-14T16:25:11;12.10;75.40
40123;DHT22;25832;45.490;4.912;2023-03-14T16:27:37;12.20;76.60
40123;DHT22;25832;45.490;4.912;2023-03-14T16:30:03;12.20;76.60
40123;DHT22;25832;45.490;4.912;2023-03-14T16:32:29;12.20;75.90
40123;DHT22;25832;45.490;4.912;2023-03-14T16:34:55;12.30;76.40
40123;DHT22;25832;45.490;4.912;2023-03-14T16:37:22;12.30;74.80
40123;DHT22;25832;45.490;4.912;2023-03-14T16:39:48;12.30;77.10
40123;DHT22;25832;45.490;4.912;2023-03-14T16:42:14;12.40;76.00
40123;DHT22;25832;45.490;4.912;2023-03-14T16:44:41;12.40;75.20
40123;DHT22;25832;45.490;4.912;2023-03-14T16:47:07;12.50;74.90
40123;DHT22;25832;45.490;4.912;2023-03-14T16:49:32;12.50;75.90
40123;DHT22;25832;45.490;4.912;2023-03-14T16:51:58;12.60;74.80
40123;DHT22;25832;45.490;4.912;2023-03-14T16:54:24;12.70;75.60
40123;DHT22;25832;45.490;4.912;2023-03-14T16:56:49;12.70;76.60
40123;DHT22;25832;45.490;4.912;2023-03-14T16:59:15;12.60;74.40
40123;DHT22;25832;45.490;4.912;2023-03-14T17:01:41;12.60;75.60